Stallovarre — LHBG — position and weather

sailwx.info

Track history (hours):
 
Tides and Currents Weather Stations Pressure Air Temp Water Temp Dewpoint Dewpoint Depression Visibility Wind Speed Wind Dir Waves Ship Positions

Stallovarre

Last reported at 2017-Jun-25 15:30 UTC. Time now 2017-Jun-25 15:44 UTC.
Position N 59°16' E 006°10'.

Length 54 m.

MMSI: 257374400.

Date/timePositionNaut miles runAvg speedWind from/ knotsBaromVisibWave heightAir tempDewpointWater temp
2017-Jun-25 15:30N 59°16' E 006°10'1 2.5
2017-Jun-25 15:00N 59°15' E 006°09'1 2.4
2017-Jun-25 14:30N 59°16' E 006°10'1 1.3
2017-Jun-25 13:30N 59°15' E 006°09'1 2.5
2017-Jun-25 13:00N 59°16' E 006°10'0 0.0
2017-Jun-25 12:30N 59°16' E 006°10'0 0.0
2017-Jun-25 12:00N 59°16' E 006°10'0 0.0
2017-Jun-25 11:30N 59°16' E 006°10'1 2.5
2017-Jun-25 11:00N 59°15' E 006°08'1 2.5
2017-Jun-25 10:30N 59°16' E 006°10'0 0.0
2017-Jun-25 10:00N 59°16' E 006°10'0 0.0
2017-Jun-25 09:29N 59°16' E 006°10'0 0.0
2017-Jun-25 09:00N 59°16' E 006°10'0 0.0
2017-Jun-25 08:30N 59°16' E 006°10'1 2.4
2017-Jun-25 08:00N 59°14' E 006°09'1 2.5
2017-Jun-25 07:30N 59°16' E 006°10'0 0.0
2017-Jun-25 07:00N 59°16' E 006°10'0 0.0
2017-Jun-25 06:30N 59°16' E 006°10'2 3.1
2017-Jun-25 06:00N 59°15' E 006°07'2 3.7
2017-Jun-25 05:30N 59°14' E 006°10'0 0.0
2017-Jun-25 05:00N 59°14' E 006°10'0 0.0
2017-Jun-25 04:30N 59°14' E 006°10'0 0.0
2017-Jun-25 04:00N 59°14' E 006°10'0 0.0
2017-Jun-25 03:30N 59°14' E 006°10'0 0.0
2017-Jun-25 03:00N 59°14' E 006°10'0 0.0
2017-Jun-25 02:29N 59°14' E 006°10'0 0.0
2017-Jun-25 02:00N 59°14' E 006°10'0 0.0
2017-Jun-25 01:30N 59°14' E 006°10'0 0.0
2017-Jun-25 01:00N 59°14' E 006°10'0 0.0
2017-Jun-25 00:30N 59°14' E 006°10'0 0.0
2017-Jun-25 00:00N 59°14' E 006°10'0 0.0
2017-Jun-24 23:30N 59°14' E 006°10'0 0.0
2017-Jun-24 23:00N 59°14' E 006°10'0 0.0
2017-Jun-24 22:30N 59°14' E 006°10'0 0.0
2017-Jun-24 21:59N 59°14' E 006°10'0 0.0
2017-Jun-24 21:29N 59°14' E 006°10'0 0.0
2017-Jun-24 21:00N 59°14' E 006°10'0 0.0
2017-Jun-24 20:29N 59°14' E 006°10'0 0.0
2017-Jun-24 20:00N 59°14' E 006°10'2 3.2
2017-Jun-24 19:29N 59°16' E 006°10'0 0.0
2017-Jun-24 19:00N 59°16' E 006°10'1 2.4
2017-Jun-24 18:30N 59°15' E 006°09'1 2.4
2017-Jun-24 18:00N 59°16' E 006°10'0 0.0
2017-Jun-24 17:30N 59°16' E 006°10'0 0.0
2017-Jun-24 17:00N 59°16' E 006°10'1 2.7
2017-Jun-24 16:30N 59°15' E 006°08'1 2.7
2017-Jun-24 16:00N 59°16' E 006°10'0 0.1
2017-Jun-24 15:30N 59°16' E 006°10'1 2.7
2017-Jun-24 15:00N 59°15' E 006°08'1 1.3
2017-Jun-24 14:00N 59°16' E 006°10'1 2.4
2017-Jun-24 13:30N 59°15' E 006°09'1 2.4
2017-Jun-24 13:00N 59°16' E 006°10'0 0.0
2017-Jun-24 12:30N 59°16' E 006°10'0 0.0
2017-Jun-24 12:00N 59°16' E 006°10'0 0.0
2017-Jun-24 11:30N 59°16' E 006°10'1 2.4
2017-Jun-24 11:00N 59°15' E 006°08'1 2.4
2017-Jun-24 10:30N 59°16' E 006°10'0 0.1
2017-Jun-24 10:00N 59°16' E 006°10'0 0.1
2017-Jun-24 09:30N 59°16' E 006°10'0 0.0
2017-Jun-24 09:00N 59°16' E 006°10'0 0.0
2017-Jun-24 08:30N 59°16' E 006°10'1 2.6
2017-Jun-24 08:00N 59°14' E 006°09'1 2.6
2017-Jun-24 07:30N 59°16' E 006°10'0 0.0
2017-Jun-24 07:00N 59°16' E 006°10'0 0.0
2017-Jun-24 06:31N 59°16' E 006°10'2 3.4
2017-Jun-24 06:00N 59°15' E 006°06'1 2.2
2017-Jun-24 05:30N 59°15' E 006°08'1 2.5
2017-Jun-24 05:00N 59°16' E 006°10'1 2.5
2017-Jun-24 04:30N 59°15' E 006°09'1 1.1
2017-Jun-24 04:00N 59°14' E 006°09'0 0.5
2017-Jun-24 03:30N 59°14' E 006°10'0 0.0
2017-Jun-24 03:00N 59°14' E 006°10'0 0.0
2017-Jun-24 02:30N 59°14' E 006°10'0 0.0
2017-Jun-24 02:00N 59°14' E 006°10'0 0.0
2017-Jun-24 01:30N 59°14' E 006°10'0 0.0
2017-Jun-24 01:00N 59°14' E 006°10'0 0.0
2017-Jun-24 00:30N 59°14' E 006°10'0 0.0
2017-Jun-24 00:00N 59°14' E 006°10'0 0.0
2017-Jun-23 23:30N 59°14' E 006°10'0 0.0
2017-Jun-23 23:00N 59°14' E 006°10'0 0.0
2017-Jun-23 22:30N 59°14' E 006°10'0 0.0
2017-Jun-23 22:00N 59°14' E 006°10'0 0.0
2017-Jun-23 21:30N 59°14' E 006°10'0 0.0
2017-Jun-23 21:00N 59°14' E 006°10'0 0.0
2017-Jun-23 20:30N 59°14' E 006°10'0 0.0
2017-Jun-23 20:00N 59°14' E 006°10'2 3.2
2017-Jun-23 19:30N 59°16' E 006°10'0 0.0
2017-Jun-23 19:00N 59°16' E 006°10'1 2.5
2017-Jun-23 18:30N 59°15' E 006°09'1 2.5
2017-Jun-23 18:00N 59°16' E 006°10'0 0.0
2017-Jun-23 17:30N 59°16' E 006°10'0 0.0
2017-Jun-23 17:00N 59°16' E 006°10'1 2.5
2017-Jun-23 16:30N 59°15' E 006°09'1 2.5
2017-Jun-23 16:00N 59°16' E 006°10'0 0.0
2017-Jun-23 15:30N 59°16' E 006°10'1 2.6
2017-Jun-23 15:00N 59°14' E 006°09'1 1.3
2017-Jun-23 13:59N 59°16' E 006°10'1 2.6
2017-Jun-23 13:30N 59°15' E 006°08'1 2.6
2017-Jun-23 13:00N 59°16' E 006°10'0 0.0
2017-Jun-23 12:30N 59°16' E 006°10'0 0.0
2017-Jun-23 12:01N 59°16' E 006°10'0 0.0
2017-Jun-23 11:30N 59°16' E 006°10'1 2.6
2017-Jun-23 11:00N 59°14' E 006°08'1 2.6
2017-Jun-23 10:30N 59°16' E 006°10'0 0.1
2017-Jun-23 10:00N 59°16' E 006°10'0 0.0
2017-Jun-23 09:31N 59°16' E 006°10'0 0.0
2017-Jun-23 09:00N 59°16' E 006°10'0 0.0
2017-Jun-23 08:30N 59°16' E 006°10'1 2.6
2017-Jun-23 08:00N 59°15' E 006°08'1 2.6
2017-Jun-23 07:30N 59°16' E 006°10'0 0.1
2017-Jun-23 07:00N 59°16' E 006°10'0 0.1
2017-Jun-23 06:30N 59°16' E 006°10'2 3.4
2017-Jun-23 06:00N 59°15' E 006°07'1 2.2
2017-Jun-23 05:30N 59°14' E 006°08'1 2.6
2017-Jun-23 05:00N 59°16' E 006°10'1 2.5
2017-Jun-23 04:30N 59°15' E 006°08'1 2.7
2017-Jun-23 04:00N 59°15' E 006°06'0 0.0
2017-Jun-23 03:30N 59°15' E 006°06'2 4.8
2017-Jun-23 03:00N 59°14' E 006°10'0 0.0
2017-Jun-23 02:30N 59°14' E 006°10'0 0.0
2017-Jun-23 02:00N 59°14' E 006°10'0 0.0
2017-Jun-23 01:30N 59°14' E 006°10'0 0.0
2017-Jun-23 01:00N 59°14' E 006°10'0 0.0
2017-Jun-23 00:30N 59°14' E 006°10'0 0.0
2017-Jun-23 00:00N 59°14' E 006°10'0 0.0
2017-Jun-22 23:30N 59°14' E 006°10'0 0.0
2017-Jun-22 23:00N 59°14' E 006°10'0 0.0
2017-Jun-22 22:30N 59°14' E 006°10'0 0.0
2017-Jun-22 22:00N 59°14' E 006°10'0 0.0
2017-Jun-22 21:30N 59°14' E 006°10'0 0.0
2017-Jun-22 21:00N 59°14' E 006°10'0 0.0
2017-Jun-22 20:30N 59°14' E 006°10'0 0.0
2017-Jun-22 20:00N 59°14' E 006°10'2 3.3
2017-Jun-22 19:30N 59°16' E 006°10'0 0.0
2017-Jun-22 19:00N 59°16' E 006°10'1 2.5
2017-Jun-22 18:30N 59°15' E 006°08'1 2.5
2017-Jun-22 18:00N 59°16' E 006°10'0 0.0
2017-Jun-22 17:30N 59°16' E 006°10'0 0.0
2017-Jun-22 17:00N 59°16' E 006°10'1 2.5
2017-Jun-22 16:30N 59°15' E 006°08'1 2.5
2017-Jun-22 16:00N 59°16' E 006°10'0 0.0
2017-Jun-22 15:30N 59°16' E 006°10'1 2.6
2017-Jun-22 15:00N 59°15' E 006°08'1 2.6
2017-Jun-22 14:30N 59°16' E 006°10'1 1.3
2017-Jun-22 13:30N 59°14' E 006°09'1 2.6
2017-Jun-22 12:59N 59°16' E 006°10'0 0.0
2017-Jun-22 12:30N 59°16' E 006°10'0 0.0
2017-Jun-22 12:00N 59°16' E 006°10'0 0.0
2017-Jun-22 11:30N 59°16' E 006°10'1 2.7
2017-Jun-22 11:00N 59°14' E 006°09'1 2.6
2017-Jun-22 10:30N 59°16' E 006°10'0 0.0
2017-Jun-22 10:00N 59°16' E 006°10'0 0.0
2017-Jun-22 09:30N 59°16' E 006°10'0 0.0
2017-Jun-22 09:00N 59°16' E 006°10'0 0.0
2017-Jun-22 08:30N 59°16' E 006°10'1 2.5
2017-Jun-22 08:00N 59°15' E 006°08'1 2.6
2017-Jun-22 07:30N 59°16' E 006°10'0 0.0
2017-Jun-22 07:00N 59°16' E 006°10'0 0.0
2017-Jun-22 06:30N 59°16' E 006°10'2 3.8
2017-Jun-22 06:00N 59°15' E 006°06'1 2.5
2017-Jun-22 05:30N 59°15' E 006°08'1 2.6
2017-Jun-22 05:00N 59°16' E 006°10'1 2.5
2017-Jun-22 04:30N 59°15' E 006°09'2 3.2
2017-Jun-22 04:00N 59°15' E 006°06'0 0.0
2017-Jun-22 03:30N 59°15' E 006°06'2 4.8
2017-Jun-22 03:00N 59°14' E 006°10'0 0.0
2017-Jun-22 02:30N 59°14' E 006°10'0 0.0
2017-Jun-22 02:00N 59°14' E 006°10'0 0.0
2017-Jun-22 01:30N 59°14' E 006°10'0 0.0
2017-Jun-22 01:00N 59°14' E 006°10'0 0.0
2017-Jun-22 00:29N 59°14' E 006°10'0 0.0
2017-Jun-22 00:00N 59°14' E 006°10'0 0.0
2017-Jun-21 23:30N 59°14' E 006°10'0 0.0
2017-Jun-21 22:59N 59°14' E 006°10'0 0.0
2017-Jun-21 22:30N 59°14' E 006°10'0 0.0
2017-Jun-21 22:00N 59°14' E 006°10'0 0.0
2017-Jun-21 21:30N 59°14' E 006°10'0 0.0
2017-Jun-21 21:00N 59°14' E 006°10'0 0.0
2017-Jun-21 20:30N 59°14' E 006°10'0 0.0
2017-Jun-21 20:00N 59°14' E 006°10'2 3.3
2017-Jun-21 19:30N 59°16' E 006°10'0 0.0
2017-Jun-21 19:00N 59°16' E 006°10'1 2.4
2017-Jun-21 18:30N 59°15' E 006°09'1 2.4
2017-Jun-21 18:00N 59°16' E 006°10'0 0.1
2017-Jun-21 17:30N 59°16' E 006°10'0 0.1
2017-Jun-21 17:00N 59°16' E 006°10'1 2.5
2017-Jun-21 16:30N 59°15' E 006°09'1 2.5
2017-Jun-21 16:00N 59°16' E 006°10'0 0.0
2017-Jun-21 15:30N 59°16' E 006°10'1 2.5
2017-Jun-21 15:00N 59°15' E 006°09'1 2.5
2017-Jun-21 14:30N 59°16' E 006°10'1 1.3
2017-Jun-21 13:30N 59°15' E 006°08'1 2.5
2017-Jun-21 13:00N 59°16' E 006°10'0 0.0
2017-Jun-21 12:31N 59°16' E 006°10'0 0.0
2017-Jun-21 12:00N 59°16' E 006°10'0 0.0
2017-Jun-21 11:30N 59°16' E 006°10'1 2.6
2017-Jun-21 11:01N 59°14' E 006°09'1 2.5
2017-Jun-21 10:30N 59°16' E 006°10'0 0.0
2017-Jun-21 10:00N 59°16' E 006°10'0 0.0
2017-Jun-21 09:30N 59°16' E 006°10'0 0.0
2017-Jun-21 09:00N 59°16' E 006°10'0 0.0
2017-Jun-21 08:30N 59°16' E 006°10'1 2.5
2017-Jun-21 07:59N 59°15' E 006°08'1 2.6
2017-Jun-21 07:30N 59°16' E 006°10'0 0.0
2017-Jun-21 07:00N 59°16' E 006°10'0 0.0
2017-Jun-21 06:30N 59°16' E 006°10'2 3.3
2017-Jun-21 06:00N 59°15' E 006°07'1 1.3
2017-Jun-21 05:31N 59°15' E 006°08'1 2.6
2017-Jun-21 05:00N 59°16' E 006°10'1 2.5
2017-Jun-21 04:30N 59°15' E 006°08'1 2.7
2017-Jun-21 04:00N 59°15' E 006°06'0 0.0
2017-Jun-21 03:30N 59°15' E 006°06'2 4.8
2017-Jun-21 03:00N 59°14' E 006°10'0 0.0
2017-Jun-21 02:29N 59°14' E 006°10'0 0.0
2017-Jun-21 02:00N 59°14' E 006°10'0 0.0
2017-Jun-21 01:30N 59°14' E 006°10'0 0.0
2017-Jun-21 01:00N 59°14' E 006°10'0 0.0
2017-Jun-21 00:30N 59°14' E 006°10'0 0.0
2017-Jun-21 00:00N 59°14' E 006°10'0 0.0
2017-Jun-20 23:30N 59°14' E 006°10'0 0.0
2017-Jun-20 23:00N 59°14' E 006°10'0 0.0
2017-Jun-20 22:29N 59°14' E 006°10'0 0.0
2017-Jun-20 22:00N 59°14' E 006°10'0 0.0
2017-Jun-20 21:30N 59°14' E 006°10'0 0.0
2017-Jun-20 21:00N 59°14' E 006°10'0 0.0
2017-Jun-20 20:30N 59°14' E 006°10'0 0.0
2017-Jun-20 20:00N 59°14' E 006°10'2 3.2
2017-Jun-20 19:30N 59°16' E 006°10'0 0.0
2017-Jun-20 19:00N 59°16' E 006°10'1 2.6
2017-Jun-20 18:30N 59°15' E 006°08'1 2.6
2017-Jun-20 18:00N 59°16' E 006°10'0 0.0
2017-Jun-20 17:30N 59°16' E 006°10'0 0.0
2017-Jun-20 17:00N 59°16' E 006°10'1 2.7
2017-Jun-20 16:31N 59°14' E 006°08'1 2.6
2017-Jun-20 16:00N 59°16' E 006°10'0 0.0
2017-Jun-20 15:30N 59°16' E 006°10'1 2.7
2017-Jun-20 15:01N 59°14' E 006°09'1 2.6
2017-Jun-20 14:30N 59°16' E 006°10'1 1.3
2017-Jun-20 13:30N 59°15' E 006°08'1 2.6
2017-Jun-20 13:00N 59°16' E 006°10'0 0.0
2017-Jun-20 12:30N 59°16' E 006°10'0 0.0
2017-Jun-20 12:00N 59°16' E 006°10'0 0.1
2017-Jun-20 11:30N 59°16' E 006°10'1 2.6
2017-Jun-20 11:00N 59°14' E 006°09'1 2.6
2017-Jun-20 10:30N 59°16' E 006°10'0 0.1
2017-Jun-20 10:00N 59°16' E 006°10'0 0.1
2017-Jun-20 09:31N 59°16' E 006°10'0 0.0
2017-Jun-20 09:00N 59°16' E 006°10'0 0.0
2017-Jun-20 08:30N 59°16' E 006°10'1 2.6
2017-Jun-20 08:00N 59°15' E 006°08'1 2.6
2017-Jun-20 07:30N 59°16' E 006°10'0 0.0
2017-Jun-20 06:59N 59°16' E 006°10'0 0.0
2017-Jun-20 06:30N 59°16' E 006°10'2 3.6
2017-Jun-20 06:00N 59°15' E 006°06'1 2.4
2017-Jun-20 05:30N 59°15' E 006°08'1 2.5
2017-Jun-20 05:00N 59°16' E 006°10'1 2.5
2017-Jun-20 04:30N 59°15' E 006°08'1 2.6
2017-Jun-20 04:00N 59°15' E 006°06'0 0.1
2017-Jun-20 03:30N 59°15' E 006°06'2 4.6
2017-Jun-20 03:00N 59°14' E 006°10'0 0.0
2017-Jun-20 02:31N 59°14' E 006°10'0 0.0
2017-Jun-20 02:00N 59°14' E 006°10'0 0.0
2017-Jun-20 01:30N 59°14' E 006°10'0 0.0
2017-Jun-20 00:59N 59°14' E 006°10'0 0.0
2017-Jun-20 00:30N 59°14' E 006°10'0 0.0
2017-Jun-20 00:00N 59°14' E 006°10'0 0.0
2017-Jun-19 23:30N 59°14' E 006°10'0 0.0
2017-Jun-19 23:00N 59°14' E 006°10'0 0.0
2017-Jun-19 22:30N 59°14' E 006°10'0 0.0
2017-Jun-19 22:00N 59°14' E 006°10'0 0.0
2017-Jun-19 21:31N 59°14' E 006°10'0 0.0
2017-Jun-19 21:00N 59°14' E 006°10'0 0.0
2017-Jun-19 20:29N 59°14' E 006°10'0 0.0
2017-Jun-19 20:00N 59°14' E 006°10'2 3.3
2017-Jun-19 19:30N 59°16' E 006°10'0 0.0
2017-Jun-19 19:00N 59°16' E 006°10'1 2.6
2017-Jun-19 18:29N 59°15' E 006°08'1 2.7
2017-Jun-19 18:00N 59°16' E 006°10'0 0.0
2017-Jun-19 17:30N 59°16' E 006°10'0 0.0
2017-Jun-19 17:00N 59°16' E 006°10'1 2.5
2017-Jun-19 16:30N 59°15' E 006°08'1 2.6
2017-Jun-19 15:59N 59°16' E 006°10'0 0.0
2017-Jun-19 15:30N 59°16' E 006°10'1 2.7
2017-Jun-19 15:00N 59°14' E 006°08'1 2.6
2017-Jun-19 14:30N 59°16' E 006°10'1 1.3
2017-Jun-19 13:30N 59°15' E 006°08'1 2.5
2017-Jun-19 13:00N 59°16' E 006°10'0 0.0
2017-Jun-19 12:30N 59°16' E 006°10'0 0.0
2017-Jun-19 12:00N 59°16' E 006°10'0 0.0
2017-Jun-19 11:30N 59°16' E 006°10'1 2.6
2017-Jun-19 11:00N 59°15' E 006°09'1 2.5
2017-Jun-19 10:30N 59°16' E 006°10'0 0.0
2017-Jun-19 10:00N 59°16' E 006°10'0 0.0
2017-Jun-19 09:30N 59°16' E 006°10'0 0.0
2017-Jun-19 09:00N 59°16' E 006°10'0 0.0
2017-Jun-19 08:30N 59°16' E 006°10'1 2.7
2017-Jun-19 08:00N 59°14' E 006°08'1 2.6
2017-Jun-19 07:30N 59°16' E 006°10'0 0.0
2017-Jun-19 07:00N 59°16' E 006°10'0 0.0
2017-Jun-19 06:30N 59°16' E 006°10'2 3.9
2017-Jun-19 06:00N 59°15' E 006°06'1 2.8
2017-Jun-19 05:30N 59°15' E 006°08'1 2.5
2017-Jun-19 05:00N 59°16' E 006°10'1 2.5
2017-Jun-19 04:30N 59°14' E 006°09'2 3.4
2017-Jun-19 04:00N 59°15' E 006°06'0 0.0
2017-Jun-19 03:30N 59°15' E 006°06'2 4.7
2017-Jun-19 03:00N 59°14' E 006°10'0 0.0
2017-Jun-19 02:30N 59°14' E 006°10'0 0.0
2017-Jun-19 02:00N 59°14' E 006°10'0 0.0
2017-Jun-19 01:31N 59°14' E 006°10'0 0.0
2017-Jun-19 00:59N 59°14' E 006°10'0 0.0
2017-Jun-19 00:30N 59°14' E 006°10'0 0.0
2017-Jun-19 00:00N 59°14' E 006°10'0 0.0
2017-Jun-18 23:30N 59°14' E 006°10'0 0.0
2017-Jun-18 23:00N 59°14' E 006°10'0 0.0
2017-Jun-18 22:30N 59°14' E 006°10'0 0.0
2017-Jun-18 22:00N 59°14' E 006°10'0 0.0
2017-Jun-18 21:29N 59°14' E 006°10'0 0.0
2017-Jun-18 21:00N 59°14' E 006°10'0 0.0
2017-Jun-18 20:30N 59°14' E 006°10'0 0.0
2017-Jun-18 20:00N 59°14' E 006°10'2 3.3
2017-Jun-18 19:30N 59°16' E 006°10'0 0.0
2017-Jun-18 19:00N 59°16' E 006°10'1 2.6
2017-Jun-18 18:30N 59°14' E 006°09'1 2.6
2017-Jun-18 18:00N 59°16' E 006°10'0 0.1
2017-Jun-18 17:30N 59°16' E 006°10'0 0.0
2017-Jun-18 17:00N 59°16' E 006°10'1 2.4
2017-Jun-18 16:30N 59°15' E 006°08'1 2.3
2017-Jun-18 16:00N 59°16' E 006°10'0 0.1
2017-Jun-18 15:30N 59°16' E 006°10'1 3.0
2017-Jun-18 15:00N 59°14' E 006°10'1 1.5
2017-Jun-18 14:00N 59°16' E 006°10'1 2.9
2017-Jun-18 13:30N 59°14' E 006°10'1 2.9
2017-Jun-18 13:00N 59°16' E 006°10'0 0.1
2017-Jun-18 12:30N 59°16' E 006°10'0 0.0
2017-Jun-18 12:00N 59°16' E 006°10'0 0.0
2017-Jun-18 11:30N 59°16' E 006°10'1 2.6
2017-Jun-18 11:00N 59°14' E 006°09'1 2.6
2017-Jun-18 10:30N 59°16' E 006°10'0 0.0
2017-Jun-18 10:00N 59°16' E 006°10'0 0.0
2017-Jun-18 09:30N 59°16' E 006°10'0 0.0
2017-Jun-18 09:01N 59°16' E 006°10'0 0.0
2017-Jun-18 08:30N 59°16' E 006°10'1 2.6
2017-Jun-18 08:00N 59°14' E 006°08'1 2.7
2017-Jun-18 07:31N 59°16' E 006°10'0 0.0
2017-Jun-18 07:00N 59°16' E 006°10'0 0.0
2017-Jun-18 06:31N 59°16' E 006°10'2 3.6
2017-Jun-18 06:00N 59°15' E 006°06'2 4.3
2017-Jun-18 05:30N 59°14' E 006°10'0 0.0
2017-Jun-18 05:01N 59°14' E 006°10'0 0.0
2017-Jun-18 04:30N 59°14' E 006°10'0 0.0
2017-Jun-18 04:00N 59°14' E 006°10'0 0.0
2017-Jun-18 03:31N 59°14' E 006°10'0 0.0
2017-Jun-18 03:01N 59°14' E 006°10'0 0.0
2017-Jun-18 02:29N 59°14' E 006°10'0 0.0
2017-Jun-18 02:00N 59°14' E 006°10'0 0.0
2017-Jun-18 01:30N 59°14' E 006°10'0 0.0
2017-Jun-18 00:59N 59°14' E 006°10'0 0.0
2017-Jun-18 00:30N 59°14' E 006°10'0 0.0
2017-Jun-18 00:00N 59°14' E 006°10'0 0.0
2017-Jun-17 23:30N 59°14' E 006°10'0 0.0
2017-Jun-17 23:00N 59°14' E 006°10'0 0.0
2017-Jun-17 22:30N 59°14' E 006°10'0 0.0
2017-Jun-17 22:00N 59°14' E 006°10'0 0.0
2017-Jun-17 21:30N 59°14' E 006°10'0 0.0
2017-Jun-17 20:59N 59°14' E 006°10'0 0.0
2017-Jun-17 20:30N 59°14' E 006°10'0 0.0
2017-Jun-17 20:00N 59°14' E 006°10'2 3.3
2017-Jun-17 19:30N 59°16' E 006°10'0 0.0
2017-Jun-17 19:00N 59°16' E 006°10'1 2.5
2017-Jun-17 18:30N 59°14' E 006°09'1 2.6
2017-Jun-17 18:00N 59°16' E 006°10'0 0.0
2017-Jun-17 17:30N 59°16' E 006°10'0 0.0
2017-Jun-17 17:00N 59°16' E 006°10'1 2.5
2017-Jun-17 16:30N 59°15' E 006°08'1 2.5
2017-Jun-17 16:00N 59°16' E 006°10'0 0.0
2017-Jun-17 15:30N 59°16' E 006°10'1 2.5
2017-Jun-17 15:00N 59°15' E 006°08'1 1.3
2017-Jun-17 14:00N 59°16' E 006°10'1 2.6
2017-Jun-17 13:30N 59°15' E 006°08'1 2.6
2017-Jun-17 13:00N 59°16' E 006°10'0 0.0
2017-Jun-17 12:30N 59°16' E 006°10'0 0.0
2017-Jun-17 12:00N 59°16' E 006°10'0 0.0
2017-Jun-17 11:30N 59°16' E 006°10'1 2.6
2017-Jun-17 11:00N 59°14' E 006°09'1 2.6
2017-Jun-17 10:30N 59°16' E 006°10'0 0.0
2017-Jun-17 10:00N 59°16' E 006°10'0 0.0
2017-Jun-17 09:30N 59°16' E 006°10'0 0.0
2017-Jun-17 09:00N 59°16' E 006°10'0 0.0
2017-Jun-17 08:30N 59°16' E 006°10'1 2.6
2017-Jun-17 08:00N 59°14' E 006°09'1 2.6
2017-Jun-17 07:30N 59°16' E 006°10'0 0.0
2017-Jun-17 07:01N 59°16' E 006°10'0 0.0
2017-Jun-17 06:30N 59°16' E 006°10'2 3.0
2017-Jun-17 06:00N 59°15' E 006°07'0 0.8
2017-Jun-17 05:30N 59°15' E 006°08'1 2.6
2017-Jun-17 05:00N 59°16' E 006°10'1 2.5
2017-Jun-17 04:30N 59°15' E 006°08'1 1.6
2017-Jun-17 04:00N 59°14' E 006°09'0 0.6
2017-Jun-17 03:30N 59°14' E 006°10'0 0.0
2017-Jun-17 03:00N 59°14' E 006°10'0 0.0
2017-Jun-17 02:30N 59°14' E 006°10'0 0.0
2017-Jun-17 02:00N 59°14' E 006°10'0 0.0
2017-Jun-17 01:30N 59°14' E 006°10'0 0.0
2017-Jun-17 01:00N 59°14' E 006°10'0 0.0
2017-Jun-17 00:31N 59°14' E 006°10'0 0.0
2017-Jun-17 00:00N 59°14' E 006°10'0 0.0
2017-Jun-16 23:30N 59°14' E 006°10'0 0.0
2017-Jun-16 22:59N 59°14' E 006°10'0 0.0
2017-Jun-16 22:30N 59°14' E 006°10'0 0.0
2017-Jun-16 22:00N 59°14' E 006°10'0 0.0
2017-Jun-16 21:30N 59°14' E 006°10'0 0.0
2017-Jun-16 20:59N 59°14' E 006°10'0 0.0
2017-Jun-16 20:30N 59°14' E 006°10'0 0.0
2017-Jun-16 19:59N 59°14' E 006°10'2 3.3
2017-Jun-16 19:30N 59°16' E 006°10'0 0.0
2017-Jun-16 19:00N 59°16' E 006°10'1 2.6
2017-Jun-16 18:30N 59°14' E 006°09'1 2.7
2017-Jun-16 18:00N 59°16' E 006°10'0 0.0
2017-Jun-16 17:30N 59°16' E 006°10'1 1.4
2017-Jun-16 16:24N 59°15' E 006°07'1 3.6
2017-Jun-16 16:00N 59°16' E 006°10'0 0.0
2017-Jun-16 15:30N 59°16' E 006°10'1 2.6
2017-Jun-16 15:00N 59°15' E 006°08'1 2.6
2017-Jun-16 14:30N 59°16' E 006°10'1 1.3
2017-Jun-16 13:30N 59°15' E 006°08'1 2.7
2017-Jun-16 13:00N 59°16' E 006°10'0 0.0
2017-Jun-16 12:30N 59°16' E 006°10'0 0.0
2017-Jun-16 12:00N 59°16' E 006°10'0 0.0
2017-Jun-16 11:30N 59°16' E 006°10'1 2.5
2017-Jun-16 10:59N 59°15' E 006°08'1 2.6
2017-Jun-16 10:30N 59°16' E 006°10'0 0.1
2017-Jun-16 10:00N 59°16' E 006°10'0 0.1
2017-Jun-16 09:30N 59°16' E 006°10'0 0.0
2017-Jun-16 09:00N 59°16' E 006°10'0 0.0
2017-Jun-16 08:30N 59°16' E 006°10'1 2.7
2017-Jun-16 08:00N 59°15' E 006°08'1 2.6
2017-Jun-16 07:29N 59°16' E 006°10'0 0.0
2017-Jun-16 06:59N 59°16' E 006°10'0 0.0
2017-Jun-16 06:30N 59°16' E 006°10'2 3.6
2017-Jun-16 06:00N 59°15' E 006°06'1 1.9
2017-Jun-16 05:29N 59°15' E 006°08'1 2.8
2017-Jun-16 05:00N 59°16' E 006°10'1 2.7
2017-Jun-16 04:30N 59°15' E 006°08'1 2.7
2017-Jun-16 04:00N 59°15' E 006°06'0 0.0
2017-Jun-16 03:30N 59°15' E 006°06'2 4.8
2017-Jun-16 03:00N 59°14' E 006°10'0 0.0
2017-Jun-16 02:30N 59°14' E 006°10'0 0.0
2017-Jun-16 02:00N 59°14' E 006°10'0 0.0
2017-Jun-16 01:30N 59°14' E 006°10'0 0.0
2017-Jun-16 01:00N 59°14' E 006°10'0 0.0
2017-Jun-16 00:30N 59°14' E 006°10'0 0.0
2017-Jun-16 00:00N 59°14' E 006°10'0 0.0
2017-Jun-15 23:30N 59°14' E 006°10'0 0.0
2017-Jun-15 23:00N 59°14' E 006°10'0 0.0
2017-Jun-15 22:30N 59°14' E 006°10'0 0.0
2017-Jun-15 22:00N 59°14' E 006°10'0 0.0
2017-Jun-15 21:30N 59°14' E 006°10'0 0.0
2017-Jun-15 21:00N 59°14' E 006°10'0 0.0
2017-Jun-15 20:30N 59°14' E 006°10'0 0.0
2017-Jun-15 20:00N 59°14' E 006°10'2 3.2
2017-Jun-15 19:30N 59°16' E 006°10'0 0.0
2017-Jun-15 19:00N 59°16' E 006°10'1 2.6
2017-Jun-15 18:30N 59°15' E 006°08'1 2.5
2017-Jun-15 18:00N 59°16' E 006°10'0 0.0
2017-Jun-15 17:30N 59°16' E 006°10'0 0.0
2017-Jun-15 17:00N 59°16' E 006°10'1 2.7
2017-Jun-15 16:30N 59°14' E 006°09'1 2.5
2017-Jun-15 15:59N 59°16' E 006°10'  
Track history (hours):
 
Tides and Currents Weather Stations Pressure Air Temp Water Temp Dewpoint Dewpoint Depression Visibility Wind Speed Wind Dir Waves Ship Positions

Stallovarre

Last reported at 2017-Jun-25 15:30 UTC. Time now 2017-Jun-25 15:44 UTC.
Position N 59°16' E 006°10'.

Length 54 m.

MMSI: 257374400.

Date/timePositionNaut miles runAvg speedWind from/ knotsBaromVisibWave heightAir tempDewpointWater temp
2017-Jun-25 15:30N 59°16' E 006°10'1 2.5
2017-Jun-25 15:00N 59°15' E 006°09'1 2.4
2017-Jun-25 14:30N 59°16' E 006°10'1 1.3
2017-Jun-25 13:30N 59°15' E 006°09'1 2.5
2017-Jun-25 13:00N 59°16' E 006°10'0 0.0
2017-Jun-25 12:30N 59°16' E 006°10'0 0.0
2017-Jun-25 12:00N 59°16' E 006°10'0 0.0
2017-Jun-25 11:30N 59°16' E 006°10'1 2.5
2017-Jun-25 11:00N 59°15' E 006°08'1 2.5
2017-Jun-25 10:30N 59°16' E 006°10'0 0.0
2017-Jun-25 10:00N 59°16' E 006°10'0 0.0
2017-Jun-25 09:29N 59°16' E 006°10'0 0.0
2017-Jun-25 09:00N 59°16' E 006°10'0 0.0
2017-Jun-25 08:30N 59°16' E 006°10'1 2.4
2017-Jun-25 08:00N 59°14' E 006°09'1 2.5
2017-Jun-25 07:30N 59°16' E 006°10'0 0.0
2017-Jun-25 07:00N 59°16' E 006°10'0 0.0
2017-Jun-25 06:30N 59°16' E 006°10'2 3.1
2017-Jun-25 06:00N 59°15' E 006°07'2 3.7
2017-Jun-25 05:30N 59°14' E 006°10'0 0.0
2017-Jun-25 05:00N 59°14' E 006°10'0 0.0
2017-Jun-25 04:30N 59°14' E 006°10'0 0.0
2017-Jun-25 04:00N 59°14' E 006°10'0 0.0
2017-Jun-25 03:30N 59°14' E 006°10'0 0.0
2017-Jun-25 03:00N 59°14' E 006°10'0 0.0
2017-Jun-25 02:29N 59°14' E 006°10'0 0.0
2017-Jun-25 02:00N 59°14' E 006°10'0 0.0
2017-Jun-25 01:30N 59°14' E 006°10'0 0.0
2017-Jun-25 01:00N 59°14' E 006°10'0 0.0
2017-Jun-25 00:30N 59°14' E 006°10'0 0.0
2017-Jun-25 00:00N 59°14' E 006°10'0 0.0
2017-Jun-24 23:30N 59°14' E 006°10'0 0.0
2017-Jun-24 23:00N 59°14' E 006°10'0 0.0
2017-Jun-24 22:30N 59°14' E 006°10'0 0.0
2017-Jun-24 21:59N 59°14' E 006°10'0 0.0
2017-Jun-24 21:29N 59°14' E 006°10'0 0.0
2017-Jun-24 21:00N 59°14' E 006°10'0 0.0
2017-Jun-24 20:29N 59°14' E 006°10'0 0.0
2017-Jun-24 20:00N 59°14' E 006°10'2 3.2
2017-Jun-24 19:29N 59°16' E 006°10'0 0.0
2017-Jun-24 19:00N 59°16' E 006°10'1 2.4
2017-Jun-24 18:30N 59°15' E 006°09'1 2.4
2017-Jun-24 18:00N 59°16' E 006°10'0 0.0
2017-Jun-24 17:30N 59°16' E 006°10'0 0.0
2017-Jun-24 17:00N 59°16' E 006°10'1 2.7
2017-Jun-24 16:30N 59°15' E 006°08'1 2.7
2017-Jun-24 16:00N 59°16' E 006°10'0 0.1
2017-Jun-24 15:30N 59°16' E 006°10'1 2.7
2017-Jun-24 15:00N 59°15' E 006°08'1 1.3
2017-Jun-24 14:00N 59°16' E 006°10'1 2.4
2017-Jun-24 13:30N 59°15' E 006°09'1 2.4
2017-Jun-24 13:00N 59°16' E 006°10'0 0.0
2017-Jun-24 12:30N 59°16' E 006°10'0 0.0
2017-Jun-24 12:00N 59°16' E 006°10'0 0.0
2017-Jun-24 11:30N 59°16' E 006°10'1 2.4
2017-Jun-24 11:00N 59°15' E 006°08'1 2.4
2017-Jun-24 10:30N 59°16' E 006°10'0 0.1
2017-Jun-24 10:00N 59°16' E 006°10'0 0.1
2017-Jun-24 09:30N 59°16' E 006°10'0 0.0
2017-Jun-24 09:00N 59°16' E 006°10'0 0.0
2017-Jun-24 08:30N 59°16' E 006°10'1 2.6
2017-Jun-24 08:00N 59°14' E 006°09'1 2.6
2017-Jun-24 07:30N 59°16' E 006°10'0 0.0
2017-Jun-24 07:00N 59°16' E 006°10'0 0.0
2017-Jun-24 06:31N 59°16' E 006°10'2 3.4
2017-Jun-24 06:00N 59°15' E 006°06'1 2.2
2017-Jun-24 05:30N 59°15' E 006°08'1 2.5
2017-Jun-24 05:00N 59°16' E 006°10'1 2.5
2017-Jun-24 04:30N 59°15' E 006°09'1 1.1
2017-Jun-24 04:00N 59°14' E 006°09'0 0.5
2017-Jun-24 03:30N 59°14' E 006°10'0 0.0
2017-Jun-24 03:00N 59°14' E 006°10'0 0.0
2017-Jun-24 02:30N 59°14' E 006°10'0 0.0
2017-Jun-24 02:00N 59°14' E 006°10'0 0.0
2017-Jun-24 01:30N 59°14' E 006°10'0 0.0
2017-Jun-24 01:00N 59°14' E 006°10'0 0.0
2017-Jun-24 00:30N 59°14' E 006°10'0 0.0
2017-Jun-24 00:00N 59°14' E 006°10'0 0.0
2017-Jun-23 23:30N 59°14' E 006°10'0 0.0
2017-Jun-23 23:00N 59°14' E 006°10'0 0.0
2017-Jun-23 22:30N 59°14' E 006°10'0 0.0
2017-Jun-23 22:00N 59°14' E 006°10'0 0.0
2017-Jun-23 21:30N 59°14' E 006°10'0 0.0
2017-Jun-23 21:00N 59°14' E 006°10'0 0.0
2017-Jun-23 20:30N 59°14' E 006°10'0 0.0
2017-Jun-23 20:00N 59°14' E 006°10'2 3.2
2017-Jun-23 19:30N 59°16' E 006°10'0 0.0
2017-Jun-23 19:00N 59°16' E 006°10'1 2.5
2017-Jun-23 18:30N 59°15' E 006°09'1 2.5
2017-Jun-23 18:00N 59°16' E 006°10'0 0.0
2017-Jun-23 17:30N 59°16' E 006°10'0 0.0
2017-Jun-23 17:00N 59°16' E 006°10'1 2.5
2017-Jun-23 16:30N 59°15' E 006°09'1 2.5
2017-Jun-23 16:00N 59°16' E 006°10'0 0.0
2017-Jun-23 15:30N 59°16' E 006°10'1 2.6
2017-Jun-23 15:00N 59°14' E 006°09'1 1.3
2017-Jun-23 13:59N 59°16' E 006°10'1 2.6
2017-Jun-23 13:30N 59°15' E 006°08'1 2.6
2017-Jun-23 13:00N 59°16' E 006°10'0 0.0
2017-Jun-23 12:30N 59°16' E 006°10'0 0.0
2017-Jun-23 12:01N 59°16' E 006°10'0 0.0
2017-Jun-23 11:30N 59°16' E 006°10'1 2.6
2017-Jun-23 11:00N 59°14' E 006°08'1 2.6
2017-Jun-23 10:30N 59°16' E 006°10'0 0.1
2017-Jun-23 10:00N 59°16' E 006°10'0 0.0
2017-Jun-23 09:31N 59°16' E 006°10'0 0.0
2017-Jun-23 09:00N 59°16' E 006°10'0 0.0
2017-Jun-23 08:30N 59°16' E 006°10'1 2.6
2017-Jun-23 08:00N 59°15' E 006°08'1 2.6
2017-Jun-23 07:30N 59°16' E 006°10'0 0.1
2017-Jun-23 07:00N 59°16' E 006°10'0 0.1
2017-Jun-23 06:30N 59°16' E 006°10'2 3.4
2017-Jun-23 06:00N 59°15' E 006°07'1 2.2
2017-Jun-23 05:30N 59°14' E 006°08'1 2.6
2017-Jun-23 05:00N 59°16' E 006°10'1 2.5
2017-Jun-23 04:30N 59°15' E 006°08'1 2.7
2017-Jun-23 04:00N 59°15' E 006°06'0 0.0
2017-Jun-23 03:30N 59°15' E 006°06'2 4.8
2017-Jun-23 03:00N 59°14' E 006°10'0 0.0
2017-Jun-23 02:30N 59°14' E 006°10'0 0.0
2017-Jun-23 02:00N 59°14' E 006°10'0 0.0
2017-Jun-23 01:30N 59°14' E 006°10'0 0.0
2017-Jun-23 01:00N 59°14' E 006°10'0 0.0
2017-Jun-23 00:30N 59°14' E 006°10'0 0.0
2017-Jun-23 00:00N 59°14' E 006°10'0 0.0
2017-Jun-22 23:30N 59°14' E 006°10'0 0.0
2017-Jun-22 23:00N 59°14' E 006°10'0 0.0
2017-Jun-22 22:30N 59°14' E 006°10'0 0.0
2017-Jun-22 22:00N 59°14' E 006°10'0 0.0
2017-Jun-22 21:30N 59°14' E 006°10'0 0.0
2017-Jun-22 21:00N 59°14' E 006°10'0 0.0
2017-Jun-22 20:30N 59°14' E 006°10'0 0.0
2017-Jun-22 20:00N 59°14' E 006°10'2 3.3
2017-Jun-22 19:30N 59°16' E 006°10'0 0.0
2017-Jun-22 19:00N 59°16' E 006°10'1 2.5
2017-Jun-22 18:30N 59°15' E 006°08'1 2.5
2017-Jun-22 18:00N 59°16' E 006°10'0 0.0
2017-Jun-22 17:30N 59°16' E 006°10'0 0.0
2017-Jun-22 17:00N 59°16' E 006°10'1 2.5
2017-Jun-22 16:30N 59°15' E 006°08'1 2.5
2017-Jun-22 16:00N 59°16' E 006°10'0 0.0
2017-Jun-22 15:30N 59°16' E 006°10'1 2.6
2017-Jun-22 15:00N 59°15' E 006°08'1 2.6
2017-Jun-22 14:30N 59°16' E 006°10'1 1.3
2017-Jun-22 13:30N 59°14' E 006°09'1 2.6
2017-Jun-22 12:59N 59°16' E 006°10'0 0.0
2017-Jun-22 12:30N 59°16' E 006°10'0 0.0
2017-Jun-22 12:00N 59°16' E 006°10'0 0.0
2017-Jun-22 11:30N 59°16' E 006°10'1 2.7
2017-Jun-22 11:00N 59°14' E 006°09'1 2.6
2017-Jun-22 10:30N 59°16' E 006°10'0 0.0
2017-Jun-22 10:00N 59°16' E 006°10'0 0.0
2017-Jun-22 09:30N 59°16' E 006°10'0 0.0
2017-Jun-22 09:00N 59°16' E 006°10'0 0.0
2017-Jun-22 08:30N 59°16' E 006°10'1 2.5
2017-Jun-22 08:00N 59°15' E 006°08'1 2.6
2017-Jun-22 07:30N 59°16' E 006°10'0 0.0
2017-Jun-22 07:00N 59°16' E 006°10'0 0.0
2017-Jun-22 06:30N 59°16' E 006°10'2 3.8
2017-Jun-22 06:00N 59°15' E 006°06'1 2.5
2017-Jun-22 05:30N 59°15' E 006°08'1 2.6
2017-Jun-22 05:00N 59°16' E 006°10'1 2.5
2017-Jun-22 04:30N 59°15' E 006°09'2 3.2
2017-Jun-22 04:00N 59°15' E 006°06'0 0.0
2017-Jun-22 03:30N 59°15' E 006°06'2 4.8
2017-Jun-22 03:00N 59°14' E 006°10'0 0.0
2017-Jun-22 02:30N 59°14' E 006°10'0 0.0
2017-Jun-22 02:00N 59°14' E 006°10'0 0.0
2017-Jun-22 01:30N 59°14' E 006°10'0 0.0
2017-Jun-22 01:00N 59°14' E 006°10'0 0.0
2017-Jun-22 00:29N 59°14' E 006°10'0 0.0
2017-Jun-22 00:00N 59°14' E 006°10'0 0.0
2017-Jun-21 23:30N 59°14' E 006°10'0 0.0
2017-Jun-21 22:59N 59°14' E 006°10'0 0.0
2017-Jun-21 22:30N 59°14' E 006°10'0 0.0
2017-Jun-21 22:00N 59°14' E 006°10'0 0.0
2017-Jun-21 21:30N 59°14' E 006°10'0 0.0
2017-Jun-21 21:00N 59°14' E 006°10'0 0.0
2017-Jun-21 20:30N 59°14' E 006°10'0 0.0
2017-Jun-21 20:00N 59°14' E 006°10'2 3.3
2017-Jun-21 19:30N 59°16' E 006°10'0 0.0
2017-Jun-21 19:00N 59°16' E 006°10'1 2.4
2017-Jun-21 18:30N 59°15' E 006°09'1 2.4
2017-Jun-21 18:00N 59°16' E 006°10'0 0.1
2017-Jun-21 17:30N 59°16' E 006°10'0 0.1
2017-Jun-21 17:00N 59°16' E 006°10'1 2.5
2017-Jun-21 16:30N 59°15' E 006°09'1 2.5
2017-Jun-21 16:00N 59°16' E 006°10'0 0.0
2017-Jun-21 15:30N 59°16' E 006°10'1 2.5
2017-Jun-21 15:00N 59°15' E 006°09'1 2.5
2017-Jun-21 14:30N 59°16' E 006°10'1 1.3
2017-Jun-21 13:30N 59°15' E 006°08'1 2.5
2017-Jun-21 13:00N 59°16' E 006°10'0 0.0
2017-Jun-21 12:31N 59°16' E 006°10'0 0.0
2017-Jun-21 12:00N 59°16' E 006°10'0 0.0
2017-Jun-21 11:30N 59°16' E 006°10'1 2.6
2017-Jun-21 11:01N 59°14' E 006°09'1 2.5
2017-Jun-21 10:30N 59°16' E 006°10'0 0.0
2017-Jun-21 10:00N 59°16' E 006°10'0 0.0
2017-Jun-21 09:30N 59°16' E 006°10'0 0.0
2017-Jun-21 09:00N 59°16' E 006°10'0 0.0
2017-Jun-21 08:30N 59°16' E 006°10'1 2.5
2017-Jun-21 07:59N 59°15' E 006°08'1 2.6
2017-Jun-21 07:30N 59°16' E 006°10'0 0.0
2017-Jun-21 07:00N 59°16' E 006°10'0 0.0
2017-Jun-21 06:30N 59°16' E 006°10'2 3.3
2017-Jun-21 06:00N 59°15' E 006°07'1 1.3
2017-Jun-21 05:31N 59°15' E 006°08'1 2.6
2017-Jun-21 05:00N 59°16' E 006°10'1 2.5
2017-Jun-21 04:30N 59°15' E 006°08'1 2.7
2017-Jun-21 04:00N 59°15' E 006°06'0 0.0
2017-Jun-21 03:30N 59°15' E 006°06'2 4.8
2017-Jun-21 03:00N 59°14' E 006°10'0 0.0
2017-Jun-21 02:29N 59°14' E 006°10'0 0.0
2017-Jun-21 02:00N 59°14' E 006°10'0 0.0
2017-Jun-21 01:30N 59°14' E 006°10'0 0.0
2017-Jun-21 01:00N 59°14' E 006°10'0 0.0
2017-Jun-21 00:30N 59°14' E 006°10'0 0.0
2017-Jun-21 00:00N 59°14' E 006°10'0 0.0
2017-Jun-20 23:30N 59°14' E 006°10'0 0.0
2017-Jun-20 23:00N 59°14' E 006°10'0 0.0
2017-Jun-20 22:29N 59°14' E 006°10'0 0.0
2017-Jun-20 22:00N 59°14' E 006°10'0 0.0
2017-Jun-20 21:30N 59°14' E 006°10'0 0.0
2017-Jun-20 21:00N 59°14' E 006°10'0 0.0
2017-Jun-20 20:30N 59°14' E 006°10'0 0.0
2017-Jun-20 20:00N 59°14' E 006°10'2 3.2
2017-Jun-20 19:30N 59°16' E 006°10'0 0.0
2017-Jun-20 19:00N 59°16' E 006°10'1 2.6
2017-Jun-20 18:30N 59°15' E 006°08'1 2.6
2017-Jun-20 18:00N 59°16' E 006°10'0 0.0
2017-Jun-20 17:30N 59°16' E 006°10'0 0.0
2017-Jun-20 17:00N 59°16' E 006°10'1 2.7
2017-Jun-20 16:31N 59°14' E 006°08'1 2.6
2017-Jun-20 16:00N 59°16' E 006°10'0 0.0
2017-Jun-20 15:30N 59°16' E 006°10'1 2.7
2017-Jun-20 15:01N 59°14' E 006°09'1 2.6
2017-Jun-20 14:30N 59°16' E 006°10'1 1.3
2017-Jun-20 13:30N 59°15' E 006°08'1 2.6
2017-Jun-20 13:00N 59°16' E 006°10'0 0.0
2017-Jun-20 12:30N 59°16' E 006°10'0 0.0
2017-Jun-20 12:00N 59°16' E 006°10'0 0.1
2017-Jun-20 11:30N 59°16' E 006°10'1 2.6
2017-Jun-20 11:00N 59°14' E 006°09'1 2.6
2017-Jun-20 10:30N 59°16' E 006°10'0 0.1
2017-Jun-20 10:00N 59°16' E 006°10'0 0.1
2017-Jun-20 09:31N 59°16' E 006°10'0 0.0
2017-Jun-20 09:00N 59°16' E 006°10'0 0.0
2017-Jun-20 08:30N 59°16' E 006°10'1 2.6
2017-Jun-20 08:00N 59°15' E 006°08'1 2.6
2017-Jun-20 07:30N 59°16' E 006°10'0 0.0
2017-Jun-20 06:59N 59°16' E 006°10'0 0.0
2017-Jun-20 06:30N 59°16' E 006°10'2 3.6
2017-Jun-20 06:00N 59°15' E 006°06'1 2.4
2017-Jun-20 05:30N 59°15' E 006°08'1 2.5
2017-Jun-20 05:00N 59°16' E 006°10'1 2.5
2017-Jun-20 04:30N 59°15' E 006°08'1 2.6
2017-Jun-20 04:00N 59°15' E 006°06'0 0.1
2017-Jun-20 03:30N 59°15' E 006°06'2 4.6
2017-Jun-20 03:00N 59°14' E 006°10'0 0.0
2017-Jun-20 02:31N 59°14' E 006°10'0 0.0
2017-Jun-20 02:00N 59°14' E 006°10'0 0.0
2017-Jun-20 01:30N 59°14' E 006°10'0 0.0
2017-Jun-20 00:59N 59°14' E 006°10'0 0.0
2017-Jun-20 00:30N 59°14' E 006°10'0 0.0
2017-Jun-20 00:00N 59°14' E 006°10'0 0.0
2017-Jun-19 23:30N 59°14' E 006°10'0 0.0
2017-Jun-19 23:00N 59°14' E 006°10'0 0.0
2017-Jun-19 22:30N 59°14' E 006°10'0 0.0
2017-Jun-19 22:00N 59°14' E 006°10'0 0.0
2017-Jun-19 21:31N 59°14' E 006°10'0 0.0
2017-Jun-19 21:00N 59°14' E 006°10'0 0.0
2017-Jun-19 20:29N 59°14' E 006°10'0 0.0
2017-Jun-19 20:00N 59°14' E 006°10'2 3.3
2017-Jun-19 19:30N 59°16' E 006°10'0 0.0
2017-Jun-19 19:00N 59°16' E 006°10'1 2.6
2017-Jun-19 18:29N 59°15' E 006°08'1 2.7
2017-Jun-19 18:00N 59°16' E 006°10'0 0.0
2017-Jun-19 17:30N 59°16' E 006°10'0 0.0
2017-Jun-19 17:00N 59°16' E 006°10'1 2.5
2017-Jun-19 16:30N 59°15' E 006°08'1 2.6
2017-Jun-19 15:59N 59°16' E 006°10'0 0.0
2017-Jun-19 15:30N 59°16' E 006°10'1 2.7
2017-Jun-19 15:00N 59°14' E 006°08'1 2.6
2017-Jun-19 14:30N 59°16' E 006°10'1 1.3
2017-Jun-19 13:30N 59°15' E 006°08'1 2.5
2017-Jun-19 13:00N 59°16' E 006°10'0 0.0
2017-Jun-19 12:30N 59°16' E 006°10'0 0.0
2017-Jun-19 12:00N 59°16' E 006°10'0 0.0
2017-Jun-19 11:30N 59°16' E 006°10'1 2.6
2017-Jun-19 11:00N 59°15' E 006°09'1 2.5
2017-Jun-19 10:30N 59°16' E 006°10'0 0.0
2017-Jun-19 10:00N 59°16' E 006°10'0 0.0
2017-Jun-19 09:30N 59°16' E 006°10'0 0.0
2017-Jun-19 09:00N 59°16' E 006°10'0 0.0
2017-Jun-19 08:30N 59°16' E 006°10'1 2.7
2017-Jun-19 08:00N 59°14' E 006°08'1 2.6
2017-Jun-19 07:30N 59°16' E 006°10'0 0.0
2017-Jun-19 07:00N 59°16' E 006°10'0 0.0
2017-Jun-19 06:30N 59°16' E 006°10'2 3.9
2017-Jun-19 06:00N 59°15' E 006°06'1 2.8
2017-Jun-19 05:30N 59°15' E 006°08'1 2.5
2017-Jun-19 05:00N 59°16' E 006°10'1 2.5
2017-Jun-19 04:30N 59°14' E 006°09'2 3.4
2017-Jun-19 04:00N 59°15' E 006°06'0 0.0
2017-Jun-19 03:30N 59°15' E 006°06'2 4.7
2017-Jun-19 03:00N 59°14' E 006°10'0 0.0
2017-Jun-19 02:30N 59°14' E 006°10'0 0.0
2017-Jun-19 02:00N 59°14' E 006°10'0 0.0
2017-Jun-19 01:31N 59°14' E 006°10'0 0.0
2017-Jun-19 00:59N 59°14' E 006°10'0 0.0
2017-Jun-19 00:30N 59°14' E 006°10'0 0.0
2017-Jun-19 00:00N 59°14' E 006°10'0 0.0
2017-Jun-18 23:30N 59°14' E 006°10'0 0.0
2017-Jun-18 23:00N 59°14' E 006°10'0 0.0
2017-Jun-18 22:30N 59°14' E 006°10'0 0.0
2017-Jun-18 22:00N 59°14' E 006°10'0 0.0
2017-Jun-18 21:29N 59°14' E 006°10'0 0.0
2017-Jun-18 21:00N 59°14' E 006°10'0 0.0
2017-Jun-18 20:30N 59°14' E 006°10'0 0.0
2017-Jun-18 20:00N 59°14' E 006°10'2 3.3
2017-Jun-18 19:30N 59°16' E 006°10'0 0.0
2017-Jun-18 19:00N 59°16' E 006°10'1 2.6
2017-Jun-18 18:30N 59°14' E 006°09'1 2.6
2017-Jun-18 18:00N 59°16' E 006°10'0 0.1
2017-Jun-18 17:30N 59°16' E 006°10'0 0.0
2017-Jun-18 17:00N 59°16' E 006°10'1 2.4
2017-Jun-18 16:30N 59°15' E 006°08'1 2.3
2017-Jun-18 16:00N 59°16' E 006°10'0 0.1
2017-Jun-18 15:30N 59°16' E 006°10'1 3.0
2017-Jun-18 15:00N 59°14' E 006°10'1 1.5
2017-Jun-18 14:00N 59°16' E 006°10'1 2.9
2017-Jun-18 13:30N 59°14' E 006°10'1 2.9
2017-Jun-18 13:00N 59°16' E 006°10'0 0.1
2017-Jun-18 12:30N 59°16' E 006°10'0 0.0
2017-Jun-18 12:00N 59°16' E 006°10'0 0.0
2017-Jun-18 11:30N 59°16' E 006°10'1 2.6
2017-Jun-18 11:00N 59°14' E 006°09'1 2.6
2017-Jun-18 10:30N 59°16' E 006°10'0 0.0
2017-Jun-18 10:00N 59°16' E 006°10'0 0.0
2017-Jun-18 09:30N 59°16' E 006°10'0 0.0
2017-Jun-18 09:01N 59°16' E 006°10'0 0.0
2017-Jun-18 08:30N 59°16' E 006°10'1 2.6
2017-Jun-18 08:00N 59°14' E 006°08'1 2.7
2017-Jun-18 07:31N 59°16' E 006°10'0 0.0
2017-Jun-18 07:00N 59°16' E 006°10'0 0.0
2017-Jun-18 06:31N 59°16' E 006°10'2 3.6
2017-Jun-18 06:00N 59°15' E 006°06'2 4.3
2017-Jun-18 05:30N 59°14' E 006°10'0 0.0
2017-Jun-18 05:01N 59°14' E 006°10'0 0.0
2017-Jun-18 04:30N 59°14' E 006°10'0 0.0
2017-Jun-18 04:00N 59°14' E 006°10'0 0.0
2017-Jun-18 03:31N 59°14' E 006°10'0 0.0
2017-Jun-18 03:01N 59°14' E 006°10'0 0.0
2017-Jun-18 02:29N 59°14' E 006°10'0 0.0
2017-Jun-18 02:00N 59°14' E 006°10'0 0.0
2017-Jun-18 01:30N 59°14' E 006°10'0 0.0
2017-Jun-18 00:59N 59°14' E 006°10'0 0.0
2017-Jun-18 00:30N 59°14' E 006°10'0 0.0
2017-Jun-18 00:00N 59°14' E 006°10'0 0.0
2017-Jun-17 23:30N 59°14' E 006°10'0 0.0
2017-Jun-17 23:00N 59°14' E 006°10'0 0.0
2017-Jun-17 22:30N 59°14' E 006°10'0 0.0
2017-Jun-17 22:00N 59°14' E 006°10'0 0.0
2017-Jun-17 21:30N 59°14' E 006°10'0 0.0
2017-Jun-17 20:59N 59°14' E 006°10'0 0.0
2017-Jun-17 20:30N 59°14' E 006°10'0 0.0
2017-Jun-17 20:00N 59°14' E 006°10'2 3.3
2017-Jun-17 19:30N 59°16' E 006°10'0 0.0
2017-Jun-17 19:00N 59°16' E 006°10'1 2.5
2017-Jun-17 18:30N 59°14' E 006°09'1 2.6
2017-Jun-17 18:00N 59°16' E 006°10'0 0.0
2017-Jun-17 17:30N 59°16' E 006°10'0 0.0
2017-Jun-17 17:00N 59°16' E 006°10'1 2.5
2017-Jun-17 16:30N 59°15' E 006°08'1 2.5
2017-Jun-17 16:00N 59°16' E 006°10'0 0.0
2017-Jun-17 15:30N 59°16' E 006°10'1 2.5
2017-Jun-17 15:00N 59°15' E 006°08'1 1.3
2017-Jun-17 14:00N 59°16' E 006°10'1 2.6
2017-Jun-17 13:30N 59°15' E 006°08'1 2.6
2017-Jun-17 13:00N 59°16' E 006°10'0 0.0
2017-Jun-17 12:30N 59°16' E 006°10'0 0.0
2017-Jun-17 12:00N 59°16' E 006°10'0 0.0
2017-Jun-17 11:30N 59°16' E 006°10'1 2.6
2017-Jun-17 11:00N 59°14' E 006°09'1 2.6
2017-Jun-17 10:30N 59°16' E 006°10'0 0.0
2017-Jun-17 10:00N 59°16' E 006°10'0 0.0
2017-Jun-17 09:30N 59°16' E 006°10'0 0.0
2017-Jun-17 09:00N 59°16' E 006°10'0 0.0
2017-Jun-17 08:30N 59°16' E 006°10'1 2.6
2017-Jun-17 08:00N 59°14' E 006°09'1 2.6
2017-Jun-17 07:30N 59°16' E 006°10'0 0.0
2017-Jun-17 07:01N 59°16' E 006°10'0 0.0
2017-Jun-17 06:30N 59°16' E 006°10'2 3.0
2017-Jun-17 06:00N 59°15' E 006°07'0 0.8
2017-Jun-17 05:30N 59°15' E 006°08'1 2.6
2017-Jun-17 05:00N 59°16' E 006°10'1 2.5
2017-Jun-17 04:30N 59°15' E 006°08'1 1.6
2017-Jun-17 04:00N 59°14' E 006°09'0 0.6
2017-Jun-17 03:30N 59°14' E 006°10'0 0.0
2017-Jun-17 03:00N 59°14' E 006°10'0 0.0
2017-Jun-17 02:30N 59°14' E 006°10'0 0.0
2017-Jun-17 02:00N 59°14' E 006°10'0 0.0
2017-Jun-17 01:30N 59°14' E 006°10'0 0.0
2017-Jun-17 01:00N 59°14' E 006°10'0 0.0
2017-Jun-17 00:31N 59°14' E 006°10'0 0.0
2017-Jun-17 00:00N 59°14' E 006°10'0 0.0
2017-Jun-16 23:30N 59°14' E 006°10'0 0.0
2017-Jun-16 22:59N 59°14' E 006°10'0 0.0
2017-Jun-16 22:30N 59°14' E 006°10'0 0.0
2017-Jun-16 22:00N 59°14' E 006°10'0 0.0
2017-Jun-16 21:30N 59°14' E 006°10'0 0.0
2017-Jun-16 20:59N 59°14' E 006°10'0 0.0
2017-Jun-16 20:30N 59°14' E 006°10'0 0.0
2017-Jun-16 19:59N 59°14' E 006°10'2 3.3
2017-Jun-16 19:30N 59°16' E 006°10'0 0.0
2017-Jun-16 19:00N 59°16' E 006°10'1 2.6
2017-Jun-16 18:30N 59°14' E 006°09'1 2.7
2017-Jun-16 18:00N 59°16' E 006°10'0 0.0
2017-Jun-16 17:30N 59°16' E 006°10'1 1.4
2017-Jun-16 16:24N 59°15' E 006°07'1 3.6
2017-Jun-16 16:00N 59°16' E 006°10'0 0.0
2017-Jun-16 15:30N 59°16' E 006°10'1 2.6
2017-Jun-16 15:00N 59°15' E 006°08'1 2.6
2017-Jun-16 14:30N 59°16' E 006°10'1 1.3
2017-Jun-16 13:30N 59°15' E 006°08'1 2.7
2017-Jun-16 13:00N 59°16' E 006°10'0 0.0
2017-Jun-16 12:30N 59°16' E 006°10'0 0.0
2017-Jun-16 12:00N 59°16' E 006°10'0 0.0
2017-Jun-16 11:30N 59°16' E 006°10'1 2.5
2017-Jun-16 10:59N 59°15' E 006°08'1 2.6
2017-Jun-16 10:30N 59°16' E 006°10'0 0.1
2017-Jun-16 10:00N 59°16' E 006°10'0 0.1
2017-Jun-16 09:30N 59°16' E 006°10'0 0.0
2017-Jun-16 09:00N 59°16' E 006°10'0 0.0
2017-Jun-16 08:30N 59°16' E 006°10'1 2.7
2017-Jun-16 08:00N 59°15' E 006°08'1 2.6
2017-Jun-16 07:29N 59°16' E 006°10'0 0.0
2017-Jun-16 06:59N 59°16' E 006°10'0 0.0
2017-Jun-16 06:30N 59°16' E 006°10'2 3.6
2017-Jun-16 06:00N 59°15' E 006°06'1 1.9
2017-Jun-16 05:29N 59°15' E 006°08'1 2.8
2017-Jun-16 05:00N 59°16' E 006°10'1 2.7
2017-Jun-16 04:30N 59°15' E 006°08'1 2.7
2017-Jun-16 04:00N 59°15' E 006°06'0 0.0
2017-Jun-16 03:30N 59°15' E 006°06'2 4.8
2017-Jun-16 03:00N 59°14' E 006°10'0 0.0
2017-Jun-16 02:30N 59°14' E 006°10'0 0.0
2017-Jun-16 02:00N 59°14' E 006°10'0 0.0
2017-Jun-16 01:30N 59°14' E 006°10'0 0.0
2017-Jun-16 01:00N 59°14' E 006°10'0 0.0
2017-Jun-16 00:30N 59°14' E 006°10'0 0.0
2017-Jun-16 00:00N 59°14' E 006°10'0 0.0
2017-Jun-15 23:30N 59°14' E 006°10'0 0.0
2017-Jun-15 23:00N 59°14' E 006°10'0 0.0
2017-Jun-15 22:30N 59°14' E 006°10'0 0.0
2017-Jun-15 22:00N 59°14' E 006°10'0 0.0
2017-Jun-15 21:30N 59°14' E 006°10'0 0.0
2017-Jun-15 21:00N 59°14' E 006°10'0 0.0
2017-Jun-15 20:30N 59°14' E 006°10'0 0.0
2017-Jun-15 20:00N 59°14' E 006°10'2 3.2
2017-Jun-15 19:30N 59°16' E 006°10'0 0.0
2017-Jun-15 19:00N 59°16' E 006°10'1 2.6
2017-Jun-15 18:30N 59°15' E 006°08'1 2.5
2017-Jun-15 18:00N 59°16' E 006°10'0 0.0
2017-Jun-15 17:30N 59°16' E 006°10'0 0.0
2017-Jun-15 17:00N 59°16' E 006°10'1 2.7
2017-Jun-15 16:30N 59°14' E 006°09'1 2.5
2017-Jun-15 15:59N 59°16' E 006°10'  

Dump ship's entire track history